地図

経路データ

SID SEASON NUMBER BASIN SUBBASIN NAME ISO_TIME NATURE LAT LON WMO_WIND WMO_PRES WMO_AGENCY TRACK_TYPE DIST2LAND LANDFALL IFLAG USA_AGENCY USA_ATCF_ID USA_LAT USA_LON USA_RECORD USA_STATUS USA_WIND USA_PRES USA_SSHS USA_R34_NE USA_R34_SE USA_R34_SW USA_R34_NW USA_R50_NE USA_R50_SE USA_R50_SW USA_R50_NW USA_R64_NE USA_R64_SE USA_R64_SW USA_R64_NW USA_POCI USA_ROCI USA_RMW USA_EYE TOKYO_LAT TOKYO_LON TOKYO_GRADE TOKYO_WIND TOKYO_PRES TOKYO_R50_DIR TOKYO_R50_LONG TOKYO_R50_SHORT TOKYO_R30_DIR TOKYO_R30_LONG TOKYO_R30_SHORT TOKYO_LAND CMA_LAT CMA_LON CMA_CAT CMA_WIND CMA_PRES HKO_LAT HKO_LON HKO_CAT HKO_WIND HKO_PRES NEWDELHI_LAT NEWDELHI_LON NEWDELHI_GRADE NEWDELHI_WIND NEWDELHI_PRES NEWDELHI_CI NEWDELHI_DP NEWDELHI_POCI REUNION_LAT REUNION_LON REUNION_TYPE REUNION_WIND REUNION_PRES REUNION_TNUM REUNION_CI REUNION_RMW REUNION_R34_NE REUNION_R34_SE REUNION_R34_SW REUNION_R34_NW REUNION_R50_NE REUNION_R50_SE REUNION_R50_SW REUNION_R50_NW REUNION_R64_NE REUNION_R64_SE REUNION_R64_SW REUNION_R64_NW BOM_LAT BOM_LON BOM_TYPE BOM_WIND BOM_PRES BOM_TNUM BOM_CI BOM_RMW BOM_R34_NE BOM_R34_SE BOM_R34_SW BOM_R34_NW BOM_R50_NE BOM_R50_SE BOM_R50_SW BOM_R50_NW BOM_R64_NE BOM_R64_SE BOM_R64_SW BOM_R64_NW BOM_ROCI BOM_POCI BOM_EYE BOM_POS_METHOD BOM_PRES_METHOD NADI_LAT NADI_LON NADI_CAT NADI_WIND NADI_PRES WELLINGTON_LAT WELLINGTON_LON WELLINGTON_WIND WELLINGTON_PRES DS824_LAT DS824_LON DS824_STAGE DS824_WIND DS824_PRES TD9636_LAT TD9636_LON TD9636_STAGE TD9636_WIND TD9636_PRES TD9635_LAT TD9635_LON TD9635_WIND TD9635_PRES TD9635_ROCI NEUMANN_LAT NEUMANN_LON NEUMANN_CLASS NEUMANN_WIND NEUMANN_PRES MLC_LAT MLC_LON MLC_CLASS MLC_WIND MLC_PRES USA_GUST BOM_GUST BOM_GUST_PER REUNION_GUST REUNION_GUST_PER USA_SEAHGT USA_SEARAD_NE USA_SEARAD_SE USA_SEARAD_SW USA_SEARAD_NW STORM_SPEED STORM_DIR
1916007S17053 1916 3 SI MM NOT_NAMED 1916-01-07 06:00:00 NR -17.1000 53.0000 reunion main 322 317 _____O________ -1 -17.1000 53.0000 99 9.90000 3 204
1916007S17053 1916 3 SI MM NOT_NAMED 1916-01-07 09:00:00 NR -17.2082 52.9352 main 317 317 _____P________ -1 -17.2082 52.9352 99 2 210
1916007S17053 1916 3 SI MM NOT_NAMED 1916-01-07 12:00:00 NR -17.3157 52.8706 main 322 318 _____P________ -1 -17.3157 52.8706 99 2 210
1916007S17053 1916 3 SI MM NOT_NAMED 1916-01-07 15:00:00 NR -17.4216 52.8064 main 318 318 _____P________ -1 -17.4216 52.8064 99 2 216
1916007S17053 1916 3 SI MM NOT_NAMED 1916-01-07 18:00:00 NR -17.4401 52.7743 main 318 314 _____P____O___ -1 -17.5251 52.7428 99 -17.1000 52.9000 2 1 227
1916007S17053 1916 3 SI MM NOT_NAMED 1916-01-07 21:00:00 NR -17.5144 52.7062 main 314 310 _____P____P___ -1 -17.6254 52.6802 99 -17.2923 52.7581 2 2 220
1916007S17053 1916 3 SI MM NOT_NAMED 1916-01-08 00:00:00 NR -17.6172 52.6204 main 310 303 _____P____P___ -1 -17.7219 52.6186 99 -17.4776 52.6228 2 3 218
1916007S17053 1916 3 SI MM NOT_NAMED 1916-01-08 03:00:00 NR -17.7314 52.5298 main 303 297 _____P____P___ -1 -17.8137 52.5585 99 -17.6491 52.5011 2 3 216
1916007S17053 1916 3 SI MM NOT_NAMED 1916-01-08 06:00:00 TS -17.8444 52.4444 reunion main 297 297 _____O___OO___ -1 -17.9000 52.5000 99 9.90000 -17.8000 52.4000 TC 35 -17.8000 52.4000 2 3 215
1916007S17053 1916 3 SI MM NOT_NAMED 1916-01-08 09:00:00 TS -17.9420 52.3770 main 302 297 _____P___PP___ -1 -17.9806 52.4433 99 -17.8975 52.3500 TC 35 -17.9256 52.3243 2 2 212
1916007S17053 1916 3 SI MM NOT_NAMED 1916-01-08 12:00:00 TS -18.0319 52.3213 main 297 297 _____P___OP___ -1 -18.0578 52.3886 99 -18.0000 52.3000 TC 35 -18.0299 52.2699 2 2 208
1916007S17053 1916 3 SI MM NOT_NAMED 1916-01-08 15:00:00 TS -18.1203 52.2721 main 299 291 _____P___PP___ -1 -18.1342 52.3357 99 -18.1075 52.2500 TC 35 -18.1193 52.2305 2 2 207
1916007S17053 1916 3 SI MM NOT_NAMED 1916-01-08 18:00:00 TS -18.2042 52.2283 main 291 291 _____P___OO___ -1 -18.2125 52.2848 99 -18.2000 52.2000 TC 35 -18.2000 52.2000 2 2 209
1916007S17053 1916 3 SI MM NOT_NAMED 1916-01-08 21:00:00 TS -18.2705 52.1833 main 293 283 _____P___PP___ -1 -18.2955 52.2357 99 -18.2500 52.1425 TC 35 -18.2659 52.1718 2 2 209
1916007S17053 1916 3 SI MM NOT_NAMED 1916-01-09 00:00:00 TS -18.3378 52.1462 main 283 283 _____P___OP___ -1 -18.3859 52.1886 99 -18.3000 52.1000 TC 35 -18.3275 52.1499 2 2 200
1916007S17053 1916 3 SI MM NOT_NAMED 1916-01-09 03:00:00 TS -18.4239 52.1238 main 285 285 _____P___PP___ -1 -18.4865 52.1433 99 -18.3850 52.1000 TC 35 -18.4003 52.1280 2 2 189
1916007S17053 1916 3 SI MM NOT_NAMED 1916-01-09 06:00:00 TS -18.5333 52.1000 reunion main 286 277 _____O___OO___ -1 -18.6000 52.1000 99 9.90000 -18.5000 52.1000 TC 35 -18.5000 52.1000 2 2 200
1916007S17053 1916 3 SI MM NOT_NAMED 1916-01-09 09:00:00 TS -18.6534 52.0432 main 279 279 _____P___PP___ -1 -18.6829 52.0188 99 -18.6350 52.0575 TC 35 -18.6422 52.0532 2 3 204
1916007S17053 1916 3 SI MM NOT_NAMED 1916-01-09 12:00:00 TS -18.7949 51.9784 main 282 274 _____P___OP___ -1 -18.7721 51.9350 99 -18.8000 52.0000 TC 35 -18.8125 52.0001 2 3 202
1916007S17053 1916 3 SI MM NOT_NAMED 1916-01-09 15:00:00 TS -18.9566 51.9177 main 278 278 _____P___PP___ -1 -18.8759 51.8560 99 -18.9925 51.9500 TC 35 -19.0016 51.9469 2 4 199
1916007S17053 1916 3 SI MM NOT_NAMED 1916-01-09 18:00:00 TS -19.1341 51.8632 main 281 276 _____P___OO___ -1 -19.0023 51.7895 99 -19.2000 51.9000 TC 35 -19.2000 51.9000 2 4 197
1916007S17053 1916 3 SI MM NOT_NAMED 1916-01-09 21:00:00 TS -19.2999 51.8084 main 281 281 _____P___PP___ -1 -19.1597 51.7430 99 -19.4000 51.8425 TC 35 -19.3400 51.8398 2 4 194
1916007S17053 1916 3 SI MM NOT_NAMED 1916-01-10 00:00:00 TS -19.4837 51.7716 main 287 287 _____P___OP___ -1 -19.3562 51.7241 99 -19.6000 51.8000 TC 35 -19.4950 51.7907 2 4 186
1916007S17053 1916 3 SI MM NOT_NAMED 1916-01-10 03:00:00 TS -19.6834 51.7631 main 293 293 _____P___PP___ -1 -19.6003 51.7405 99 -19.7475 51.7776 TC 35 -19.7025 51.7713 2 5 180
1916007S17053 1916 3 SI MM NOT_NAMED 1916-01-10 06:00:00 TS -19.9667 51.8000 reunion main 304 304 _____O___OO___ -1 -19.9000 51.8000 99 9.90000 -20.0000 51.8000 TC 35 -20.0000 51.8000 2 7 172
1916007S17053 1916 3 SI MM NOT_NAMED 1916-01-10 09:00:00 TS -20.4119 51.8758 main 326 326 _____P___PP___ -1 -20.2871 51.8821 99 -20.5050 51.8700 TC 35 -20.4437 51.8753 2 10 169
1916007S17053 1916 3 SI MM NOT_NAMED 1916-01-10 12:00:00 TS -20.9359 52.0019 main 332 312 _____P___OP___ -1 -20.7328 52.0031 99 -21.1000 52.0000 TC 35 -20.9749 52.0026 2 11 165
1916007S17053 1916 3 SI MM NOT_NAMED 1916-01-10 15:00:00 TS -21.4583 52.1734 main 313 303 _____P___PP___ -1 -21.2239 52.1639 99 -21.6075 52.1776 TC 35 -21.5436 52.1786 2 11 161
1916007S17053 1916 3 SI MM NOT_NAMED 1916-01-10 18:00:00 TS -21.9824 52.3885 main 306 304 _____P___OO___ -1 -21.7472 52.3656 99 -22.1000 52.4000 TC 35 -22.1000 52.4000 2 11 158
1916007S17053 1916 3 SI MM NOT_NAMED 1916-01-10 21:00:00 TS -22.4919 52.6180 main 309 304 _____P___PP___ -1 -22.2897 52.6090 99 -22.6149 52.6277 TC 35 -22.5710 52.6173 2 11 155
1916007S17053 1916 3 SI MM NOT_NAMED 1916-01-11 00:00:00 TS -22.9866 52.8923 main 311 310 _____P___OP___ -1 -22.8381 52.8953 99 -23.1000 52.9000 TC 35 -23.0216 52.8818 2 11 150
1916007S17053 1916 3 SI MM NOT_NAMED 1916-01-11 03:00:00 TS -23.4493 53.2120 main 318 318 _____P___PP___ -1 -23.3793 53.2253 99 -23.5073 53.2055 TC 35 -23.4614 53.2053 2 11 145
1916007S17053 1916 3 SI MM NOT_NAMED 1916-01-11 06:00:00 TS -23.9000 53.6000 reunion main 338 338 _____O___OO___ -1 -23.9000 53.6000 99 9.90000 -23.9000 53.6000 TC 35 -23.9000 53.6000 2 12 139
1916007S17053 1916 3 SI MM NOT_NAMED 1916-01-11 09:00:00 TS -24.3691 54.0907 main 367 364 _____P___PP___ -1 -24.4021 54.0704 99 -24.3426 54.1200 TC 35 -24.3627 54.0816 2 13 135
1916007S17053 1916 3 SI MM NOT_NAMED 1916-01-11 12:00:00 TS -24.8397 54.6438 main 393 393 _____P___OP___ -1 -24.8959 54.5997 99 -24.8000 54.7000 TC 35 -24.8232 54.6318 2 14 132
1916007S17053 1916 3 SI MM NOT_NAMED 1916-01-11 15:00:00 TS -25.3006 55.2137 main 437 437 _____P___PP___ -1 -25.3724 55.1671 99 -25.2574 55.2577 TC 35 -25.2720 55.2162 2 14 131
1916007S17053 1916 3 SI MM NOT_NAMED 1916-01-11 18:00:00 TS -25.7410 55.7836 main 481 481 _____P___OO___ -1 -25.8229 55.7509 99 -25.7000 55.8000 TC 35 -25.7000 55.8000 2 13 130
1916007S17053 1916 3 SI MM NOT_NAMED 1916-01-11 21:00:00 TS -26.1516 56.3282 main 541 541 _____P___PP___ -1 -26.2389 56.3289 99 -26.1147 56.3005 TC 35 -26.1013 56.3551 2 13 130
1916007S17053 1916 3 SI MM NOT_NAMED 1916-01-12 00:00:00 TS -26.5390 56.8565 main 585 585 _____P___OP___ -1 -26.6121 56.8786 99 -26.5000 56.8000 TC 35 -26.4805 56.8837 2 12 128
1916007S17053 1916 3 SI MM NOT_NAMED 1916-01-12 03:00:00 TS -26.8931 57.3714 main 641 641 _____P___PP___ -1 -26.9350 57.3767 99 -26.8580 57.3367 TC 35 -26.8445 57.3953 2 11 127
1916007S17053 1916 3 SI MM NOT_NAMED 1916-01-12 06:00:00 TS -27.2000 57.8333 reunion main 685 685 _____O___OO___ -1 -27.2000 57.8000 99 9.90000 -27.2000 57.9000 TC 35 -27.2000 57.9000 2 8 127
1916007S17053 1916 3 SI MM NOT_NAMED 1916-01-12 09:00:00 NR -27.4025 58.1308 main 716 716 _____P________ -1 -27.4025 58.1308 99 TC 2 6 126
1916007S17053 1916 3 SI MM NOT_NAMED 1916-01-12 12:00:00 NR -27.5486 58.3748 main 738 738 _____P________ -1 -27.5486 58.3748 99 2 4 124
1916007S17053 1916 3 SI MM NOT_NAMED 1916-01-12 15:00:00 NR -27.6466 58.5441 main 752 752 _____P________ -1 -27.6466 58.5441 99 2 3 123
1916007S17053 1916 3 SI MM NOT_NAMED 1916-01-12 18:00:00 NR -27.7048 58.6507 main 770 770 _____P________ -1 -27.7048 58.6507 99 2 120
1916007S17053 1916 3 SI MM NOT_NAMED 1916-01-12 21:00:00 NR -27.7313 58.7070 main 770 770 _____P________ -1 -27.7313 58.7070 99 1 112
1916007S17053 1916 3 SI MM NOT_NAMED 1916-01-13 00:00:00 NR -27.7341 58.7257 main 770 770 _____P________ -1 -27.7341 58.7257 99 0 0
1916007S17053 1916 3 SI MM NOT_NAMED 1916-01-13 03:00:00 NR -27.7210 58.7191 main 770 770 _____P________ -1 -27.7210 58.7191 99 0 330
1916007S17053 1916 3 SI MM NOT_NAMED 1916-01-13 06:00:00 NR -27.7000 58.7000 reunion main 770 _____O________ -1 -27.7000 58.7000 99 9.90000 1 0

IBTrACS Databaseについて

本データベースは、米国NOAAが公開する1842年以降の世界の熱帯低気圧のベストトラックデータアーカイブInternational Best Track Archive for Climate Stewardship (IBTrACS)を、ウェブで閲覧しやすい形式に変換したものです。

最終更新日:2021-12-06